sensor_id;sensor_type;location;lat;lon;timestamp;pressure;altitude;pressure_sealevel;temperature;humidity
1616;BME280;801;47.982;7.810;2023-04-28T00:00:42;98422.28;;;16.62;100.00
1616;BME280;801;47.982;7.810;2023-04-28T00:03:09;98415.75;;;16.49;100.00
1616;BME280;801;47.982;7.810;2023-04-28T00:05:35;98411.44;;;16.48;100.00
1616;BME280;801;47.982;7.810;2023-04-28T00:08:04;98409.19;;;16.50;100.00
1616;BME280;801;47.982;7.810;2023-04-28T00:10:30;98405.09;;;16.52;100.00
1616;BME280;801;47.982;7.810;2023-04-28T00:12:57;98396.75;;;16.49;100.00
1616;BME280;801;47.982;7.810;2023-04-28T00:15:23;98385.91;;;16.49;100.00
1616;BME280;801;47.982;7.810;2023-04-28T00:17:50;98387.91;;;16.43;100.00
1616;BME280;801;47.982;7.810;2023-04-28T00:20:17;98373.75;;;16.46;100.00
1616;BME280;801;47.982;7.810;2023-04-28T00:22:44;98386.41;;;16.51;100.00
1616;BME280;801;47.982;7.810;2023-04-28T00:25:12;98376.25;;;16.56;100.00
1616;BME280;801;47.982;7.810;2023-04-28T00:27:38;98365.13;;;16.44;100.00
1616;BME280;801;47.982;7.810;2023-04-28T00:30:06;98361.31;;;16.31;100.00
1616;BME280;801;47.982;7.810;2023-04-28T00:32:32;98367.38;;;16.28;100.00
1616;BME280;801;47.982;7.810;2023-04-28T00:34:59;98365.34;;;16.34;100.00
1616;BME280;801;47.982;7.810;2023-04-28T00:37:25;98363.53;;;16.29;100.00
1616;BME280;801;47.982;7.810;2023-04-28T00:39:55;98367.66;;;16.27;100.00
1616;BME280;801;47.982;7.810;2023-04-28T00:42:23;98358.13;;;16.29;100.00
1616;BME280;801;47.982;7.810;2023-04-28T00:44:49;98365.16;;;16.30;100.00
1616;BME280;801;47.982;7.810;2023-04-28T00:47:17;98357.94;;;16.26;100.00
1616;BME280;801;47.982;7.810;2023-04-28T00:49:44;98358.94;;;16.16;100.00
1616;BME280;801;47.982;7.810;2023-04-28T00:52:11;98359.34;;;15.95;100.00
1616;BME280;801;47.982;7.810;2023-04-28T00:54:38;98362.53;;;16.25;100.00
1616;BME280;801;47.982;7.810;2023-04-28T00:57:04;98350.88;;;16.38;100.00
1616;BME280;801;47.982;7.810;2023-04-28T00:59:33;98354.56;;;16.43;100.00
1616;BME280;801;47.982;7.810;2023-04-28T01:01:59;98368.34;;;16.46;100.00
1616;BME280;801;47.982;7.810;2023-04-28T01:04:28;98373.06;;;16.40;100.00
1616;BME280;801;47.982;7.810;2023-04-28T01:06:54;98378.22;;;16.14;100.00
1616;BME280;801;47.982;7.810;2023-04-28T01:09:21;98382.81;;;16.14;100.00
1616;BME280;801;47.982;7.810;2023-04-28T01:11:48;98391.75;;;16.01;100.00
1616;BME280;801;47.982;7.810;2023-04-28T01:14:14;98405.28;;;15.87;100.00
1616;BME280;801;47.982;7.810;2023-04-28T01:16:43;98408.97;;;15.63;100.00
1616;BME280;801;47.982;7.810;2023-04-28T01:19:16;98416.28;;;15.30;100.00
1616;BME280;801;47.982;7.810;2023-04-28T01:21:45;98419.44;;;14.99;100.00
1616;BME280;801;47.982;7.810;2023-04-28T01:24:13;98421.94;;;15.14;100.00
1616;BME280;801;47.982;7.810;2023-04-28T01:26:40;98418.00;;;14.88;100.00
1616;BME280;801;47.982;7.810;2023-04-28T01:29:07;98414.34;;;14.79;100.00
1616;BME280;801;47.982;7.810;2023-04-28T01:31:33;98411.47;;;15.08;100.00
1616;BME280;801;47.982;7.810;2023-04-28T01:34:00;98413.72;;;15.20;100.00
1616;BME280;801;47.982;7.810;2023-04-28T01:36:26;98421.97;;;15.28;100.00
1616;BME280;801;47.982;7.810;2023-04-28T01:38:53;98425.34;;;15.39;100.00
1616;BME280;801;47.982;7.810;2023-04-28T01:41:21;98426.53;;;15.47;100.00
1616;BME280;801;47.982;7.810;2023-04-28T01:43:47;98437.50;;;15.55;100.00
1616;BME280;801;47.982;7.810;2023-04-28T01:46:13;98435.41;;;15.52;100.00
1616;BME280;801;47.982;7.810;2023-04-28T01:48:40;98441.09;;;15.51;100.00
1616;BME280;801;47.982;7.810;2023-04-28T01:51:06;98445.81;;;15.45;100.00
1616;BME280;801;47.982;7.810;2023-04-28T01:53:33;98439.78;;;15.48;100.00
1616;BME280;801;47.982;7.810;2023-04-28T01:55:59;98441.16;;;15.32;100.00
1616;BME280;801;47.982;7.810;2023-04-28T01:58:28;98436.69;;;15.22;100.00
1616;BME280;801;47.982;7.810;2023-04-28T02:00:54;98433.34;;;15.11;100.00
1616;BME280;801;47.982;7.810;2023-04-28T02:03:21;98447.44;;;15.08;100.00
1616;BME280;801;47.982;7.810;2023-04-28T02:05:47;98444.03;;;15.03;100.00
1616;BME280;801;47.982;7.810;2023-04-28T02:08:14;98428.38;;;15.00;100.00
1616;BME280;801;47.982;7.810;2023-04-28T02:10:40;98402.19;;;14.76;100.00
1616;BME280;801;47.982;7.810;2023-04-28T02:13:07;98400.75;;;14.65;100.00
1616;BME280;801;47.982;7.810;2023-04-28T02:15:38;98391.88;;;14.59;100.00
1616;BME280;801;47.982;7.810;2023-04-28T02:18:05;98409.56;;;14.70;100.00
1616;BME280;801;47.982;7.810;2023-04-28T02:20:31;98413.38;;;14.69;100.00
1616;BME280;801;47.982;7.810;2023-04-28T02:22:58;98416.66;;;14.66;100.00
1616;BME280;801;47.982;7.810;2023-04-28T02:25:24;98410.09;;;14.72;100.00
1616;BME280;801;47.982;7.810;2023-04-28T02:27:51;98406.44;;;14.63;100.00
1616;BME280;801;47.982;7.810;2023-04-28T02:30:17;98406.88;;;14.70;100.00
1616;BME280;801;47.982;7.810;2023-04-28T02:32:45;98406.00;;;14.75;100.00
1616;BME280;801;47.982;7.810;2023-04-28T02:35:13;98405.53;;;14.87;100.00
1616;BME280;801;47.982;7.810;2023-04-28T02:37:40;98401.81;;;14.64;100.00
1616;BME280;801;47.982;7.810;2023-04-28T02:40:07;98389.59;;;14.66;100.00
1616;BME280;801;47.982;7.810;2023-04-28T02:42:34;98397.81;;;14.61;100.00
1616;BME280;801;47.982;7.810;2023-04-28T02:45:00;98399.41;;;14.62;100.00
1616;BME280;801;47.982;7.810;2023-04-28T02:47:27;98396.03;;;14.70;100.00
1616;BME280;801;47.982;7.810;2023-04-28T02:49:54;98397.06;;;14.74;100.00
1616;BME280;801;47.982;7.810;2023-04-28T02:52:21;98396.84;;;14.71;100.00
1616;BME280;801;47.982;7.810;2023-04-28T02:54:47;98399.47;;;14.57;100.00
1616;BME280;801;47.982;7.810;2023-04-28T02:57:19;98386.09;;;14.66;100.00
1616;BME280;801;47.982;7.810;2023-04-28T02:59:45;98386.19;;;14.80;100.00
1616;BME280;801;47.982;7.810;2023-04-28T03:02:12;98385.09;;;14.81;100.00
1616;BME280;801;47.982;7.810;2023-04-28T03:04:40;98381.13;;;14.73;100.00
1616;BME280;801;47.982;7.810;2023-04-28T03:07:08;98380.47;;;14.81;100.00
1616;BME280;801;47.982;7.810;2023-04-28T03:09:34;98390.06;;;14.73;100.00
1616;BME280;801;47.982;7.810;2023-04-28T03:12:01;98386.25;;;14.74;100.00
1616;BME280;801;47.982;7.810;2023-04-28T03:14:27;98386.25;;;14.74;100.00
1616;BME280;801;47.982;7.810;2023-04-28T03:16:54;98387.00;;;14.80;100.00
1616;BME280;801;47.982;7.810;2023-04-28T03:19:22;98384.72;;;14.87;100.00
1616;BME280;801;47.982;7.810;2023-04-28T03:21:48;98380.34;;;14.91;100.00
1616;BME280;801;47.982;7.810;2023-04-28T03:24:16;98378.94;;;14.94;100.00
1616;BME280;801;47.982;7.810;2023-04-28T03:26:42;98374.41;;;14.89;100.00
1616;BME280;801;47.982;7.810;2023-04-28T03:29:09;98375.00;;;15.05;100.00
1616;BME280;801;47.982;7.810;2023-04-28T03:31:35;98370.84;;;14.94;100.00
1616;BME280;801;47.982;7.810;2023-04-28T03:34:02;98362.41;;;14.95;100.00
1616;BME280;801;47.982;7.810;2023-04-28T03:36:28;98362.66;;;14.80;100.00
1616;BME280;801;47.982;7.810;2023-04-28T03:38:56;98365.09;;;14.95;100.00
1616;BME280;801;47.982;7.810;2023-04-28T03:41:24;98353.41;;;15.00;100.00
1616;BME280;801;47.982;7.810;2023-04-28T03:43:50;98366.31;;;14.89;100.00
1616;BME280;801;47.982;7.810;2023-04-28T03:46:17;98367.31;;;14.93;100.00
1616;BME280;801;47.982;7.810;2023-04-28T03:48:44;98359.28;;;14.88;100.00
1616;BME280;801;47.982;7.810;2023-04-28T03:51:11;98343.72;;;14.80;100.00
1616;BME280;801;47.982;7.810;2023-04-28T03:53:37;98348.53;;;14.64;100.00
1616;BME280;801;47.982;7.810;2023-04-28T03:56:05;98337.09;;;14.48;100.00
1616;BME280;801;47.982;7.810;2023-04-28T03:58:33;98338.78;;;14.44;100.00
1616;BME280;801;47.982;7.810;2023-04-28T04:00:59;98348.66;;;14.54;100.00
1616;BME280;801;47.982;7.810;2023-04-28T04:03:26;98346.28;;;14.71;100.00
1616;BME280;801;47.982;7.810;2023-04-28T04:05:52;98354.75;;;14.65;100.00
1616;BME280;801;47.982;7.810;2023-04-28T04:08:19;98348.09;;;14.57;100.00
1616;BME280;801;47.982;7.810;2023-04-28T04:10:46;98345.69;;;14.56;100.00
1616;BME280;801;47.982;7.810;2023-04-28T04:13:12;98355.50;;;14.46;100.00
1616;BME280;801;47.982;7.810;2023-04-28T04:15:40;98351.66;;;14.52;100.00
1616;BME280;801;47.982;7.810;2023-04-28T04:18:07;98342.81;;;14.47;100.00
1616;BME280;801;47.982;7.810;2023-04-28T04:20:33;98331.03;;;14.38;100.00
1616;BME280;801;47.982;7.810;2023-04-28T04:23:00;98338.50;;;14.46;100.00
1616;BME280;801;47.982;7.810;2023-04-28T04:25:27;98337.56;;;14.56;100.00
1616;BME280;801;47.982;7.810;2023-04-28T04:27:54;98338.94;;;14.53;100.00
1616;BME280;801;47.982;7.810;2023-04-28T04:30:20;98326.72;;;14.37;100.00
1616;BME280;801;47.982;7.810;2023-04-28T04:32:48;98331.78;;;14.43;100.00
1616;BME280;801;47.982;7.810;2023-04-28T04:35:15;98336.59;;;14.46;100.00
1616;BME280;801;47.982;7.810;2023-04-28T04:37:41;98335.72;;;14.32;100.00
1616;BME280;801;47.982;7.810;2023-04-28T04:40:09;98345.13;;;14.35;100.00
1616;BME280;801;47.982;7.810;2023-04-28T04:42:35;98344.50;;;14.43;100.00
1616;BME280;801;47.982;7.810;2023-04-28T04:45:02;98345.06;;;14.40;100.00
1616;BME280;801;47.982;7.810;2023-04-28T04:47:29;98354.13;;;14.30;100.00
1616;BME280;801;47.982;7.810;2023-04-28T04:49:57;98349.59;;;14.25;100.00
1616;BME280;801;47.982;7.810;2023-04-28T04:52:23;98362.38;;;14.39;100.00
1616;BME280;801;47.982;7.810;2023-04-28T04:54:50;98354.00;;;14.40;100.00
1616;BME280;801;47.982;7.810;2023-04-28T04:57:16;98346.41;;;14.42;100.00
1616;BME280;801;47.982;7.810;2023-04-28T04:59:43;98347.84;;;14.35;100.00
1616;BME280;801;47.982;7.810;2023-04-28T05:02:10;98353.16;;;14.40;100.00
1616;BME280;801;47.982;7.810;2023-04-28T05:04:36;98342.34;;;14.40;100.00
1616;BME280;801;47.982;7.810;2023-04-28T05:07:04;98335.63;;;14.37;100.00
1616;BME280;801;47.982;7.810;2023-04-28T05:09:31;98345.09;;;14.59;100.00
1616;BME280;801;47.982;7.810;2023-04-28T05:11:58;98335.28;;;14.44;100.00
1616;BME280;801;47.982;7.810;2023-04-28T05:14:24;98345.44;;;14.52;100.00
1616;BME280;801;47.982;7.810;2023-04-28T05:16:51;98342.22;;;14.50;100.00
1616;BME280;801;47.982;7.810;2023-04-28T05:19:18;98338.41;;;14.51;100.00
1616;BME280;801;47.982;7.810;2023-04-28T05:21:44;98334.63;;;14.52;100.00
1616;BME280;801;47.982;7.810;2023-04-28T05:24:13;98342.16;;;14.36;100.00
1616;BME280;801;47.982;7.810;2023-04-28T05:26:39;98339.09;;;14.43;100.00
1616;BME280;801;47.982;7.810;2023-04-28T05:29:06;98350.63;;;14.48;100.00
1616;BME280;801;47.982;7.810;2023-04-28T05:31:32;98345.22;;;14.48;100.00
1616;BME280;801;47.982;7.810;2023-04-28T05:33:59;98352.44;;;14.53;100.00
1616;BME280;801;47.982;7.810;2023-04-28T05:36:26;98354.19;;;14.44;100.00
1616;BME280;801;47.982;7.810;2023-04-28T05:38:52;98355.81;;;14.45;100.00
1616;BME280;801;47.982;7.810;2023-04-28T05:41:20;98348.22;;;14.47;100.00
1616;BME280;801;47.982;7.810;2023-04-28T05:43:47;98358.94;;;14.33;100.00
1616;BME280;801;47.982;7.810;2023-04-28T05:46:15;98353.03;;;14.50;100.00
1616;BME280;801;47.982;7.810;2023-04-28T05:48:42;98348.78;;;14.44;100.00
1616;BME280;801;47.982;7.810;2023-04-28T05:51:08;98354.44;;;14.47;100.00
1616;BME280;801;47.982;7.810;2023-04-28T05:53:35;98351.84;;;14.37;100.00
1616;BME280;801;47.982;7.810;2023-04-28T05:56:01;98342.16;;;14.36;100.00
1616;BME280;801;47.982;7.810;2023-04-28T05:58:29;98348.00;;;14.43;100.00
1616;BME280;801;47.982;7.810;2023-04-28T06:00:57;98350.91;;;14.28;100.00
1616;BME280;801;47.982;7.810;2023-04-28T06:03:24;98352.72;;;14.32;100.00
1616;BME280;801;47.982;7.810;2023-04-28T06:05:50;98346.53;;;14.32;100.00
1616;BME280;801;47.982;7.810;2023-04-28T06:08:18;98347.75;;;14.40;100.00
1616;BME280;801;47.982;7.810;2023-04-28T06:10:44;98349.38;;;14.41;100.00
1616;BME280;801;47.982;7.810;2023-04-28T06:13:11;98355.94;;;14.35;100.00
1616;BME280;801;47.982;7.810;2023-04-28T06:15:39;98351.81;;;14.42;100.00
1616;BME280;801;47.982;7.810;2023-04-28T06:18:05;98348.44;;;14.50;100.00
1616;BME280;801;47.982;7.810;2023-04-28T06:20:33;98362.38;;;14.39;100.00
1616;BME280;801;47.982;7.810;2023-04-28T06:23:00;98354.19;;;14.44;100.00
1616;BME280;801;47.982;7.810;2023-04-28T06:25:27;98359.59;;;14.44;100.00
1616;BME280;801;47.982;7.810;2023-04-28T06:27:54;98379.91;;;14.41;100.00
1616;BME280;801;47.982;7.810;2023-04-28T06:30:21;98356.50;;;14.56;100.00
1616;BME280;801;47.982;7.810;2023-04-28T06:32:49;98362.38;;;14.39;100.00
1616;BME280;801;47.982;7.810;2023-04-28T06:35:16;98372.19;;;14.10;100.00
1616;BME280;801;47.982;7.810;2023-04-28T06:37:42;98367.47;;;14.21;100.00
1616;BME280;801;47.982;7.810;2023-04-28T06:40:10;98370.34;;;14.30;100.00
1616;BME280;801;47.982;7.810;2023-04-28T06:42:36;98367.25;;;14.18;100.00
1616;BME280;801;47.982;7.810;2023-04-28T06:45:03;98372.16;;;14.35;100.00
1616;BME280;801;47.982;7.810;2023-04-28T06:47:29;98378.16;;;14.31;100.00
1616;BME280;801;47.982;7.810;2023-04-28T06:49:57;98387.00;;;14.13;100.00
1616;BME280;801;47.982;7.810;2023-04-28T06:52:25;98390.03;;;14.11;100.00
1616;BME280;801;47.982;7.810;2023-04-28T06:54:53;98415.59;;;14.19;100.00
1616;BME280;801;47.982;7.810;2023-04-28T06:57:20;98414.97;;;14.03;100.00
1616;BME280;801;47.982;7.810;2023-04-28T06:59:47;98409.28;;;14.05;100.00
1616;BME280;801;47.982;7.810;2023-04-28T07:02:13;98406.81;;;13.84;100.00
1616;BME280;801;47.982;7.810;2023-04-28T07:04:40;98403.16;;;13.70;100.00
1616;BME280;801;47.982;7.810;2023-04-28T07:07:08;98394.84;;;13.90;100.00
1616;BME280;801;47.982;7.810;2023-04-28T07:09:34;98396.47;;;13.91;100.00
1616;BME280;801;47.982;7.810;2023-04-28T07:12:01;98390.94;;;14.02;100.00
1616;BME280;801;47.982;7.810;2023-04-28T07:14:28;98415.72;;;14.09;100.00
1616;BME280;801;47.982;7.810;2023-04-28T07:16:54;98396.63;;;14.00;100.00
1616;BME280;801;47.982;7.810;2023-04-28T07:19:21;98408.53;;;13.99;100.00
1616;BME280;801;47.982;7.810;2023-04-28T07:21:48;98400.81;;;14.11;100.00
1616;BME280;801;47.982;7.810;2023-04-28T07:24:16;98412.53;;;14.26;100.00
1616;BME280;801;47.982;7.810;2023-04-28T07:26:42;98406.94;;;14.22;100.00
1616;BME280;801;47.982;7.810;2023-04-28T07:29:09;98400.47;;;14.18;100.00
1616;BME280;801;47.982;7.810;2023-04-28T07:31:37;98385.22;;;14.27;100.00
1616;BME280;801;47.982;7.810;2023-04-28T07:34:04;98386.66;;;14.20;100.00
1616;BME280;801;47.982;7.810;2023-04-28T07:36:30;98408.09;;;14.35;100.00
1616;BME280;801;47.982;7.810;2023-04-28T07:38:58;98403.13;;;14.23;100.00
1616;BME280;801;47.982;7.810;2023-04-28T07:41:26;98379.25;;;14.30;100.00
1616;BME280;801;47.982;7.810;2023-04-28T07:43:53;98387.59;;;14.34;100.00
1616;BME280;801;47.982;7.810;2023-04-28T07:46:20;98387.91;;;14.51;100.00
1616;BME280;801;47.982;7.810;2023-04-28T07:48:47;98396.13;;;14.41;100.00
1616;BME280;801;47.982;7.810;2023-04-28T07:51:13;98401.25;;;14.43;100.00
1616;BME280;801;47.982;7.810;2023-04-28T07:53:40;98402.41;;;14.61;100.00
1616;BME280;801;47.982;7.810;2023-04-28T07:56:07;98403.81;;;14.53;100.00
1616;BME280;801;47.982;7.810;2023-04-28T07:58:35;98399.06;;;14.45;100.00
1616;BME280;801;47.982;7.810;2023-04-28T08:01:01;98410.22;;;14.62;100.00
1616;BME280;801;47.982;7.810;2023-04-28T08:03:28;98401.53;;;14.65;100.00
1616;BME280;801;47.982;7.810;2023-04-28T08:05:54;98404.53;;;14.64;100.00
1616;BME280;801;47.982;7.810;2023-04-28T08:08:21;98398.91;;;14.79;100.00
1616;BME280;801;47.982;7.810;2023-04-28T08:10:47;98404.81;;;14.81;100.00
1616;BME280;801;47.982;7.810;2023-04-28T08:13:15;98400.66;;;14.70;100.00
1616;BME280;801;47.982;7.810;2023-04-28T08:15:43;98408.34;;;14.82;100.00
1616;BME280;801;47.982;7.810;2023-04-28T08:18:09;98422.28;;;14.70;100.00
1616;BME280;801;47.982;7.810;2023-04-28T08:20:36;98425.81;;;14.70;100.00
1616;BME280;801;47.982;7.810;2023-04-28T08:23:02;98425.16;;;14.79;100.00
1616;BME280;801;47.982;7.810;2023-04-28T08:25:29;98424.28;;;14.83;100.00
1616;BME280;801;47.982;7.810;2023-04-28T08:27:56;98444.38;;;14.77;100.00
1616;BME280;801;47.982;7.810;2023-04-28T08:30:22;98443.88;;;14.94;100.00
1616;BME280;801;47.982;7.810;2023-04-28T08:32:50;98449.50;;;14.79;100.00
1616;BME280;801;47.982;7.810;2023-04-28T08:35:17;98448.34;;;14.85;100.00
1616;BME280;801;47.982;7.810;2023-04-28T08:37:44;98467.91;;;14.52;100.00
1616;BME280;801;47.982;7.810;2023-04-28T08:40:10;98463.97;;;14.45;100.00
1616;BME280;801;47.982;7.810;2023-04-28T08:42:37;98462.22;;;14.54;100.00
1616;BME280;801;47.982;7.810;2023-04-28T08:45:05;98466.59;;;14.50;100.00
1616;BME280;801;47.982;7.810;2023-04-28T08:47:33;98463.97;;;14.45;100.00
1616;BME280;801;47.982;7.810;2023-04-28T08:50:03;98462.00;;;14.50;100.00
1616;BME280;801;47.982;7.810;2023-04-28T08:52:31;98449.41;;;14.41;100.00
1616;BME280;801;47.982;7.810;2023-04-28T08:54:58;98440.16;;;14.47;100.00
1616;BME280;801;47.982;7.810;2023-04-28T08:57:27;98431.44;;;14.50;100.00
1616;BME280;801;47.982;7.810;2023-04-28T08:59:58;98437.56;;;14.80;100.00
1616;BME280;801;47.982;7.810;2023-04-28T09:02:25;98457.81;;;14.63;100.00
1616;BME280;801;47.982;7.810;2023-04-28T09:04:52;98445.16;;;14.78;100.00
1616;BME280;801;47.982;7.810;2023-04-28T09:07:19;98433.56;;;14.58;100.00
1616;BME280;801;47.982;7.810;2023-04-28T09:09:46;98443.34;;;14.73;100.00
1616;BME280;801;47.982;7.810;2023-04-28T09:12:13;98453.94;;;14.69;100.00
1616;BME280;801;47.982;7.810;2023-04-28T09:14:39;98458.06;;;14.86;100.00
1616;BME280;801;47.982;7.810;2023-04-28T09:17:10;98466.59;;;14.74;100.00
1616;BME280;801;47.982;7.810;2023-04-28T09:19:38;98459.44;;;14.83;100.00
1616;BME280;801;47.982;7.810;2023-04-28T09:22:07;98463.47;;;14.86;100.00
1616;BME280;801;47.982;7.810;2023-04-28T09:24:37;98478.25;;;15.12;100.00
1616;BME280;801;47.982;7.810;2023-04-28T09:27:06;98480.00;;;15.03;100.00
1616;BME280;801;47.982;7.810;2023-04-28T09:29:35;98473.69;;;14.89;100.00
1616;BME280;801;47.982;7.810;2023-04-28T09:32:13;98487.75;;;14.91;100.00
1616;BME280;801;47.982;7.810;2023-04-28T09:34:43;98474.72;;;14.93;100.00
1616;BME280;801;47.982;7.810;2023-04-28T09:37:15;98471.97;;;14.98;100.00
1616;BME280;801;47.982;7.810;2023-04-28T09:39:44;98496.44;;;15.07;100.00
1616;BME280;801;47.982;7.810;2023-04-28T09:42:29;98478.38;;;15.02;100.00
1616;BME280;801;47.982;7.810;2023-04-28T09:44:56;98493.38;;;14.94;100.00
1616;BME280;801;47.982;7.810;2023-04-28T09:47:23;98484.09;;;15.20;100.00
1616;BME280;801;47.982;7.810;2023-04-28T09:49:53;98479.41;;;15.06;100.00
1616;BME280;801;47.982;7.810;2023-04-28T09:52:21;98479.75;;;15.38;100.00
1616;BME280;801;47.982;7.810;2023-04-28T09:54:51;98470.94;;;15.32;100.00
1616;BME280;801;47.982;7.810;2023-04-28T09:57:18;98469.53;;;15.34;100.00
1616;BME280;801;47.982;7.810;2023-04-28T09:59:46;98483.41;;;15.66;100.00
1616;BME280;801;47.982;7.810;2023-04-28T10:02:14;98477.06;;;15.56;100.00
1616;BME280;801;47.982;7.810;2023-04-28T10:04:41;98492.03;;;15.68;100.00
1616;BME280;801;47.982;7.810;2023-04-28T10:07:10;98480.88;;;15.69;100.00
1616;BME280;801;47.982;7.810;2023-04-28T10:09:37;98483.50;;;15.42;100.00
1616;BME280;801;47.982;7.810;2023-04-28T10:12:05;98500.03;;;15.40;100.00
1616;BME280;801;47.982;7.810;2023-04-28T10:14:33;98485.16;;;15.56;100.00
1616;BME280;801;47.982;7.810;2023-04-28T10:17:00;98491.84;;;15.45;100.00
1616;BME280;801;47.982;7.810;2023-04-28T10:19:27;98468.09;;;15.56;100.00
1616;BME280;801;47.982;7.810;2023-04-28T10:22:02;98473.66;;;15.65;100.00
1616;BME280;801;47.982;7.810;2023-04-28T10:24:31;98472.91;;;15.78;100.00
1616;BME280;801;47.982;7.810;2023-04-28T10:27:07;98468.69;;;15.72;100.00
1616;BME280;801;47.982;7.810;2023-04-28T10:29:34;98470.53;;;15.76;100.00
1616;BME280;801;47.982;7.810;2023-04-28T10:32:17;98481.53;;;15.80;100.00
1616;BME280;801;47.982;7.810;2023-04-28T10:34:45;98475.63;;;15.78;100.00
1616;BME280;801;47.982;7.810;2023-04-28T10:37:13;98477.50;;;15.96;100.00
1616;BME280;801;47.982;7.810;2023-04-28T10:42:52;98478.16;;;15.88;100.00
1616;BME280;801;47.982;7.810;2023-04-28T10:48:19;98470.19;;;16.25;100.00
1616;BME280;801;47.982;7.810;2023-04-28T10:51:20;98457.03;;;16.18;100.00
1616;BME280;801;47.982;7.810;2023-04-28T10:54:07;98466.56;;;16.43;100.00
1616;BME280;801;47.982;7.810;2023-04-28T10:56:34;98456.56;;;16.30;100.00
1616;BME280;801;47.982;7.810;2023-04-28T10:59:25;98456.53;;;16.44;100.00
1616;BME280;801;47.982;7.810;2023-04-28T11:01:52;98454.50;;;16.91;100.00
1616;BME280;801;47.982;7.810;2023-04-28T11:04:18;98473.63;;;16.86;100.00
1616;BME280;801;47.982;7.810;2023-04-28T11:06:46;98474.22;;;16.83;100.00
1616;BME280;801;47.982;7.810;2023-04-28T11:09:48;98450.63;;;17.06;100.00
1616;BME280;801;47.982;7.810;2023-04-28T11:12:15;98445.97;;;16.84;100.00
1616;BME280;801;47.982;7.810;2023-04-28T11:14:44;98445.41;;;17.09;100.00
1616;BME280;801;47.982;7.810;2023-04-28T11:17:11;98452.25;;;17.07;100.00
1616;BME280;801;47.982;7.810;2023-04-28T11:19:41;98461.69;;;17.09;100.00
1616;BME280;801;47.982;7.810;2023-04-28T11:22:13;98451.97;;;16.94;100.00
1616;BME280;801;47.982;7.810;2023-04-28T11:24:40;98452.56;;;17.28;100.00
1616;BME280;801;47.982;7.810;2023-04-28T11:27:06;98449.56;;;17.29;100.00
1616;BME280;801;47.982;7.810;2023-04-28T11:29:34;98448.19;;;17.18;100.00
1616;BME280;801;47.982;7.810;2023-04-28T11:32:03;98444.69;;;17.40;100.00
1616;BME280;801;47.982;7.810;2023-04-28T11:34:29;98443.44;;;17.46;100.00
1616;BME280;801;47.982;7.810;2023-04-28T11:36:56;98445.91;;;17.34;100.00
1616;BME280;801;47.982;7.810;2023-04-28T11:39:27;98446.91;;;17.60;100.00
1616;BME280;801;47.982;7.810;2023-04-28T11:41:54;98441.59;;;17.33;100.00
1616;BME280;801;47.982;7.810;2023-04-28T11:44:23;98422.81;;;17.45;100.00
1616;BME280;801;47.982;7.810;2023-04-28T11:46:52;98421.66;;;17.60;100.00
1616;BME280;801;47.982;7.810;2023-04-28T11:49:23;98438.94;;;17.64;100.00
1616;BME280;801;47.982;7.810;2023-04-28T11:51:51;98419.63;;;17.97;100.00
1616;BME280;801;47.982;7.810;2023-04-28T11:54:22;98435.13;;;17.96;100.00
1616;BME280;801;47.982;7.810;2023-04-28T11:56:49;98434.66;;;18.34;100.00
1616;BME280;801;47.982;7.810;2023-04-28T11:59:15;98426.47;;;17.94;100.00
1616;BME280;801;47.982;7.810;2023-04-28T12:01:47;98429.94;;;18.09;100.00
1616;BME280;801;47.982;7.810;2023-04-28T12:04:26;98421.97;;;18.21;100.00
1616;BME280;801;47.982;7.810;2023-04-28T12:07:00;98415.34;;;18.53;100.00
1616;BME280;801;47.982;7.810;2023-04-28T12:09:27;98406.78;;;19.29;100.00
1616;BME280;801;47.982;7.810;2023-04-28T12:11:55;98400.03;;;19.36;100.00
1616;BME280;801;47.982;7.810;2023-04-28T12:14:22;98415.25;;;19.45;100.00
1616;BME280;801;47.982;7.810;2023-04-28T12:16:49;98412.38;;;20.06;100.00
1616;BME280;801;47.982;7.810;2023-04-28T12:19:16;98420.22;;;19.35;100.00
1616;BME280;801;47.982;7.810;2023-04-28T12:21:57;98435.16;;;19.11;100.00
1616;BME280;801;47.982;7.810;2023-04-28T12:24:24;98417.66;;;19.29;100.00
1616;BME280;801;47.982;7.810;2023-04-28T12:26:51;98423.22;;;19.68;100.00
1616;BME280;801;47.982;7.810;2023-04-28T12:29:34;98421.97;;;19.48;100.00
1616;BME280;801;47.982;7.810;2023-04-28T12:32:01;98418.53;;;19.86;100.00
1616;BME280;801;47.982;7.810;2023-04-28T12:34:27;98417.00;;;20.15;100.00
1616;BME280;801;47.982;7.810;2023-04-28T12:36:56;98415.22;;;20.19;100.00
1616;BME280;801;47.982;7.810;2023-04-28T12:39:23;98409.28;;;20.17;100.00
1616;BME280;801;47.982;7.810;2023-04-28T12:41:51;98414.72;;;19.78;100.00
1616;BME280;801;47.982;7.810;2023-04-28T12:44:19;98396.09;;;19.80;100.00
1616;BME280;801;47.982;7.810;2023-04-28T12:46:46;98412.84;;;19.35;100.00
1616;BME280;801;47.982;7.810;2023-04-28T12:49:13;98404.94;;;19.60;100.00
1616;BME280;801;47.982;7.810;2023-04-28T12:51:39;98403.81;;;19.78;100.00
1616;BME280;801;47.982;7.810;2023-04-28T12:54:07;98412.78;;;19.79;100.00
1616;BME280;801;47.982;7.810;2023-04-28T12:56:34;98401.41;;;19.77;100.00
1616;BME280;801;47.982;7.810;2023-04-28T12:59:01;98403.16;;;19.81;100.00
1616;BME280;801;47.982;7.810;2023-04-28T13:01:28;98405.75;;;19.60;100.00
1616;BME280;801;47.982;7.810;2023-04-28T13:03:55;98401.59;;;19.63;100.00
1616;BME280;801;47.982;7.810;2023-04-28T13:06:22;98396.16;;;19.72;100.00
1616;BME280;801;47.982;7.810;2023-04-28T13:08:48;98416.00;;;19.81;100.00
1616;BME280;801;47.982;7.810;2023-04-28T13:11:16;98409.41;;;19.64;100.00
1616;BME280;801;47.982;7.810;2023-04-28T13:13:43;98401.91;;;19.53;100.00
1616;BME280;801;47.982;7.810;2023-04-28T13:16:10;98391.09;;;19.91;100.00
1616;BME280;801;47.982;7.810;2023-04-28T13:18:38;98386.09;;;19.93;100.00
1616;BME280;801;47.982;7.810;2023-04-28T13:21:05;98381.72;;;20.69;100.00
1616;BME280;801;47.982;7.810;2023-04-28T13:23:31;98401.16;;;20.88;100.00
1616;BME280;801;47.982;7.810;2023-04-28T13:25:58;98384.53;;;20.81;100.00
1616;BME280;801;47.982;7.810;2023-04-28T13:28:27;98383.25;;;20.49;100.00
1616;BME280;801;47.982;7.810;2023-04-28T13:30:53;98382.19;;;20.71;100.00